Time;durP1;ratioP1;P1;durP2;ratioP2;P2;SDS_P1;SDS_P2;PMS_P1;PMS_P2;Temp;Humidity;BMP_temperature;BMP_pressure;BME280_temperature;BME280_humidity;BME280_pressure;Samples;Min_cycle;Max_cycle;Signal;HPM_P1;HPM_P2
2022/10/31 00:01:37;;;;;;;21.95;12.05;;;15.60;99.90;;;;;;5118663;28;20043;-73
2022/10/31 00:04:03;;;;;;;18.85;11.40;;;15.50;99.90;;;;;;5118717;28;20435;-73
2022/10/31 00:06:29;;;;;;;27.60;14.18;;;15.40;99.90;;;;;;5117475;28;20046;-73
2022/10/31 00:09:00;;;;;;;26.50;13.85;;;15.40;99.90;;;;;;5151991;27;20071;-73
2022/10/31 00:11:26;;;;;;;21.67;11.95;;;15.40;99.90;;;;;;5118587;27;20039;-74
2022/10/31 00:13:52;;;;;;;27.95;12.43;;;15.40;99.90;;;;;;5118643;28;20043;-73
2022/10/31 00:16:23;;;;;;;42.15;18.92;;;15.30;99.90;;;;;;5118702;27;20371;-73
2022/10/31 00:18:50;;;;;;;30.38;16.00;;;15.30;99.90;;;;;;5118444;28;20085;-74
2022/10/31 00:21:16;;;;;;;24.67;13.80;;;15.30;99.90;;;;;;5118586;28;20032;-74
2022/10/31 00:23:42;;;;;;;32.50;15.93;;;15.30;99.90;;;;;;5151792;27;20309;-74
2022/10/31 00:26:08;;;;;;;40.92;20.15;;;15.40;99.90;;;;;;5118378;28;20042;-74
2022/10/31 00:28:33;;;;;;;43.88;18.50;;;15.40;99.90;;;;;;5118434;28;20063;-73
2022/10/31 00:31:01;;;;;;;33.80;17.40;;;15.40;99.90;;;;;;5118038;28;20329;-75
2022/10/31 00:33:28;;;;;;;28.13;15.55;;;15.30;99.90;;;;;;5118092;28;20043;-74
2022/10/31 00:35:54;;;;;;;21.35;13.68;;;15.30;99.90;;;;;;5118206;28;20035;-73
2022/10/31 00:38:19;;;;;;;29.00;17.08;;;15.30;99.90;;;;;;5118003;28;20047;-74
2022/10/31 00:40:45;;;;;;;28.35;17.30;;;15.20;99.90;;;;;;5151502;27;20370;-73
2022/10/31 00:43:11;;;;;;;33.15;18.20;;;15.20;99.90;;;;;;5151155;27;20338;-73
2022/10/31 00:45:37;;;;;;;35.95;18.98;;;15.20;99.90;;;;;;5117802;28;20044;-73
2022/10/31 00:48:03;;;;;;;30.48;17.40;;;15.20;99.90;;;;;;5117349;28;20035;-74
2022/10/31 00:50:29;;;;;;;33.17;17.48;;;15.20;99.90;;;;;;5117991;28;20115;-74
2022/10/31 00:52:54;;;;;;;26.00;14.32;;;15.20;99.90;;;;;;5117979;28;20089;-74
2022/10/31 00:55:20;;;;;;;40.22;18.30;;;15.10;99.90;;;;;;5117999;28;20085;-73
2022/10/31 00:57:47;;;;;;;23.88;14.43;;;15.10;99.90;;;;;;5117658;28;20039;-74
2022/10/31 01:00:14;;;;;;;28.15;15.70;;;15.10;99.90;;;;;;5117974;28;20119;-74
2022/10/31 01:02:40;;;;;;;27.27;14.05;;;15.00;99.90;;;;;;5117690;28;20050;-74
2022/10/31 01:05:05;;;;;;;25.48;15.25;;;15.00;99.90;;;;;;5133676;27;20040;-73
2022/10/31 01:07:31;;;;;;;35.85;16.95;;;14.90;99.90;;;;;;5117214;28;20036;-74
2022/10/31 01:09:57;;;;;;;29.55;15.65;;;14.90;99.90;;;;;;5117609;28;20110;-74
2022/10/31 01:12:22;;;;;;;25.85;13.60;;;14.90;99.90;;;;;;5116604;28;20436;-74
2022/10/31 01:14:48;;;;;;;24.95;14.07;;;14.90;99.90;;;;;;5117278;28;20080;-76
2022/10/31 01:17:14;;;;;;;29.77;15.30;;;14.90;99.90;;;;;;5117234;28;20047;-74
2022/10/31 01:19:40;;;;;;;44.10;20.20;;;14.90;99.90;;;;;;5117293;28;20032;-74
2022/10/31 01:22:06;;;;;;;32.20;16.83;;;15.00;99.90;;;;;;5117267;28;20417;-73
2022/10/31 01:24:32;;;;;;;41.35;19.15;;;14.90;99.90;;;;;;5117236;28;20031;-74
2022/10/31 01:26:57;;;;;;;33.95;18.70;;;14.90;99.90;;;;;;5117245;28;20329;-74
2022/10/31 01:29:23;;;;;;;49.47;19.65;;;14.90;99.90;;;;;;5115955;28;20040;-74
2022/10/31 01:31:49;;;;;;;27.15;15.38;;;14.90;99.90;;;;;;5117175;28;20035;-74
2022/10/31 01:34:16;;;;;;;33.58;17.80;;;14.90;99.90;;;;;;5150590;27;20039;-74
2022/10/31 01:36:43;;;;;;;26.35;15.07;;;15.00;99.90;;;;;;5117287;28;20096;-74
2022/10/31 01:39:12;;;;;;;24.65;14.75;;;15.00;99.90;;;;;;5116876;28;20039;-74
2022/10/31 01:41:40;;;;;;;25.92;14.98;;;15.00;99.90;;;;;;5149622;27;20119;-73
2022/10/31 01:44:14;;;;;;;26.13;14.60;;;14.90;99.90;;;;;;5116275;28;20154;-74
2022/10/31 01:46:50;;;;;;;23.55;13.48;;;14.90;99.90;;;;;;5116869;28;20112;-74
2022/10/31 01:49:28;;;;;;;27.25;15.70;;;14.90;99.90;;;;;;5117113;28;20075;-74
2022/10/31 01:52:11;;;;;;;34.45;16.35;;;14.90;99.90;;;;;;5116899;28;20077;-74
2022/10/31 01:54:51;;;;;;;23.20;13.68;;;14.90;99.90;;;;;;5116867;28;20093;-74
2022/10/31 01:57:18;;;;;;;39.00;16.80;;;14.80;99.90;;;;;;5117155;28;20044;-74
2022/10/31 01:59:49;;;;;;;22.40;13.68;;;14.80;99.90;;;;;;5154242;27;20451;-74
2022/10/31 02:02:17;;;;;;;19.38;11.70;;;14.80;99.90;;;;;;5120967;27;20071;-74
2022/10/31 02:04:44;;;;;;;36.42;16.50;;;14.80;99.90;;;;;;5121159;28;20062;-74
2022/10/31 02:07:17;;;;;;;26.88;14.82;;;14.70;99.90;;;;;;5120733;28;20420;-74
2022/10/31 02:09:46;;;;;;;32.28;14.52;;;14.60;99.90;;;;;;5120915;28;20109;-74
2022/10/31 02:12:13;;;;;;;24.58;13.88;;;14.60;99.90;;;;;;5120864;28;20096;-74
2022/10/31 02:14:40;;;;;;;25.75;14.40;;;14.60;99.90;;;;;;5121065;28;20110;-74
2022/10/31 02:17:05;;;;;;;23.58;13.98;;;14.60;99.90;;;;;;5120733;28;20054;-74
2022/10/31 02:20:10;;;;;;;23.90;13.77;;;14.70;99.90;;;;;;5120571;28;20122;-75
2022/10/31 02:22:46;;;;;;;23.70;13.23;;;14.70;99.90;;;;;;5109119;28;20334;-74
2022/10/31 02:25:21;;;;;;;;;;;14.60;99.90;;;;;;5121291;28;20334;-74
2022/10/31 02:27:56;;;;;;;36.58;16.48;;;14.60;99.90;;;;;;5120964;28;19950;-74
2022/10/31 02:30:24;;;;;;;30.02;15.30;;;14.60;99.90;;;;;;5120349;28;20039;-74
2022/10/31 02:32:50;;;;;;;26.33;14.27;;;14.60;99.90;;;;;;5120793;28;20043;-74
2022/10/31 02:35:40;;;;;;;24.52;12.85;;;14.60;99.90;;;;;;5120742;28;20043;-74
2022/10/31 02:38:42;;;;;;;31.92;15.90;;;14.60;99.90;;;;;;5120017;28;20095;-74
2022/10/31 02:41:19;;;;;;;32.97;16.83;;;14.60;99.90;;;;;;5120730;28;20047;-74
2022/10/31 02:44:10;;;;;;;18.75;12.25;;;14.50;99.90;;;;;;5153518;27;20055;-73
2022/10/31 02:47:00;;;;;;;21.63;13.52;;;14.50;99.90;;;;;;5120059;28;20417;-74
2022/10/31 02:49:48;;;;;;;20.25;11.85;;;14.40;99.90;;;;;;5153815;27;20071;-74
2022/10/31 02:52:23;;;;;;;21.77;12.43;;;14.30;99.90;;;;;;5120140;28;20066;-74
2022/10/31 02:54:49;;;;;;;18.23;11.65;;;14.20;99.90;;;;;;5153523;27;20123;-73
2022/10/31 02:57:22;;;;;;;23.40;13.35;;;14.10;99.90;;;;;;5135999;27;20114;-74
2022/10/31 02:59:52;;;;;;;20.63;11.23;;;14.00;99.90;;;;;;5120238;28;20062;-74
2022/10/31 03:02:42;;;;;;;19.13;12.18;;;14.00;99.90;;;;;;5120161;28;20119;-74
2022/10/31 03:06:02;;;;;;;21.17;13.02;;;14.00;99.90;;;;;;5120107;28;20031;-74
2022/10/31 03:08:38;;;;;;;23.63;12.35;;;14.00;99.90;;;;;;5076730;28;20044;-74
2022/10/31 03:11:06;;;;;;;19.00;12.30;;;14.00;99.90;;;;;;5113475;28;20083;-73
2022/10/31 03:13:38;;;;;;;20.27;11.80;;;13.90;99.90;;;;;;5119929;28;20043;-74
2022/10/31 03:16:49;;;;;;;16.63;10.68;;;13.90;99.90;;;;;;5152819;27;20056;-74
2022/10/31 03:19:18;;;;;;;16.50;10.80;;;13.90;99.90;;;;;;5076921;28;20044;-74
2022/10/31 03:21:45;;;;;;;22.58;13.00;;;13.80;99.90;;;;;;5076962;28;20040;-73
2022/10/31 03:24:13;;;;;;;21.17;11.82;;;13.70;99.90;;;;;;5098261;28;20100;-74
2022/10/31 03:26:43;;;;;;;21.10;11.07;;;13.70;99.90;;;;;;5119601;28;20049;-74
2022/10/31 03:29:12;;;;;;;24.38;13.10;;;13.70;99.90;;;;;;5119003;28;20047;-74
2022/10/31 03:31:53;;;;;;;28.95;15.95;;;13.70;99.90;;;;;;5119350;27;20042;-73
2022/10/31 03:34:20;;;;;;;33.58;16.83;;;13.80;99.90;;;;;;5119212;28;20036;-74
2022/10/31 03:36:50;;;;;;;23.83;11.60;;;13.80;99.90;;;;;;5119510;28;20060;-74
2022/10/31 03:39:19;;;;;;;27.02;14.40;;;13.80;99.90;;;;;;5152488;27;20051;-74
2022/10/31 03:41:53;;;;;;;35.83;16.92;;;13.80;99.90;;;;;;5119168;28;20290;-74
2022/10/31 03:44:22;;;;;;;23.80;13.07;;;13.80;99.90;;;;;;5115533;28;20062;-73
2022/10/31 03:46:48;;;;;;;24.10;12.85;;;13.80;99.90;;;;;;5100924;28;20043;-74
2022/10/31 03:49:15;;;;;;;19.88;12.63;;;13.90;99.90;;;;;;5119151;27;20047;-74
2022/10/31 03:51:40;;;;;;;20.48;13.15;;;13.90;99.90;;;;;;5119058;28;20333;-74
2022/10/31 03:54:20;;;;;;;20.60;11.88;;;13.80;99.90;;;;;;5118842;28;20040;-74
2022/10/31 03:56:51;;;;;;;19.95;12.07;;;13.70;99.90;;;;;;5118868;28;20058;-74
2022/10/31 03:59:23;;;;;;;24.40;13.48;;;13.70;99.90;;;;;;5118921;28;20388;-74
2022/10/31 04:01:52;;;;;;;22.05;13.63;;;13.60;99.90;;;;;;5118477;28;20058;-75
2022/10/31 04:04:19;;;;;;;26.05;14.35;;;13.60;99.90;;;;;;5117775;28;20075;-74
2022/10/31 04:06:47;;;;;;;18.85;12.40;;;13.60;99.90;;;;;;5152083;27;20108;-74
2022/10/31 04:09:14;;;;;;;22.00;13.18;;;13.60;99.90;;;;;;5118256;28;20363;-74
2022/10/31 04:11:53;;;;;;;21.33;13.60;;;13.50;99.90;;;;;;5118886;28;20048;-74
2022/10/31 04:14:22;;;;;;;19.40;13.00;;;13.50;99.90;;;;;;5118615;28;20035;-78
2022/10/31 04:16:47;;;;;;;21.40;13.25;;;13.50;99.90;;;;;;5118761;28;20111;-74
2022/10/31 04:19:14;;;;;;;22.08;12.57;;;13.50;99.90;;;;;;5118511;28;20036;-74
2022/10/31 04:21:43;;;;;;;22.55;12.55;;;13.50;99.90;;;;;;5116355;28;20035;-74
2022/10/31 04:24:09;;;;;;;16.73;11.80;;;13.40;99.90;;;;;;5118600;27;20031;-74
2022/10/31 04:26:35;;;;;;;25.00;15.02;;;13.40;99.90;;;;;;5117446;28;20035;-74
2022/10/31 04:29:01;;;;;;;39.80;18.73;;;13.40;99.90;;;;;;5117249;28;20047;-74
2022/10/31 04:31:26;;;;;;;29.40;16.83;;;13.40;99.90;;;;;;5118436;28;20042;-74
2022/10/31 04:33:52;;;;;;;23.13;11.85;;;13.40;99.90;;;;;;5118287;28;20412;-75
2022/10/31 04:36:18;;;;;;;21.55;12.27;;;13.50;99.90;;;;;;5118198;28;20114;-74
2022/10/31 04:38:43;;;;;;;19.27;11.82;;;13.50;99.90;;;;;;5117918;28;20416;-74
2022/10/31 04:41:09;;;;;;;18.50;11.38;;;13.50;99.90;;;;;;5117981;28;20040;-74
2022/10/31 04:43:35;;;;;;;17.70;11.88;;;13.50;99.90;;;;;;5117550;28;20051;-74
2022/10/31 04:46:01;;;;;;;23.55;14.70;;;13.50;99.90;;;;;;5116864;28;20097;-74
2022/10/31 04:48:27;;;;;;;30.98;15.32;;;13.50;99.90;;;;;;5116745;28;20081;-74
2022/10/31 04:50:52;;;;;;;21.02;13.20;;;13.50;99.90;;;;;;5118075;28;20039;-74
2022/10/31 04:53:18;;;;;;;46.03;19.30;;;13.50;99.90;;;;;;5116976;28;20328;-74
2022/10/31 04:55:43;;;;;;;31.70;17.27;;;13.50;99.90;;;;;;5117807;28;20063;-74
2022/10/31 04:58:09;;;;;;;19.75;12.57;;;13.50;99.90;;;;;;5117775;28;20466;-75
2022/10/31 05:00:35;;;;;;;18.30;12.13;;;13.50;99.90;;;;;;5117908;28;20301;-74
2022/10/31 05:03:00;;;;;;;17.90;11.98;;;13.50;99.90;;;;;;5117725;28;20063;-74
2022/10/31 05:05:29;;;;;;;23.35;13.27;;;13.50;99.90;;;;;;5117742;28;20427;-74
2022/10/31 05:07:55;;;;;;;20.50;13.30;;;13.40;99.90;;;;;;5117188;28;20099;-74
2022/10/31 05:10:24;;;;;;;21.50;13.68;;;13.30;99.90;;;;;;5151076;27;20031;-74
2022/10/31 05:12:52;;;;;;;24.67;14.20;;;13.30;99.90;;;;;;5117705;28;20067;-74
2022/10/31 05:15:21;;;;;;;17.92;11.27;;;13.30;99.90;;;;;;5117660;28;20047;-74
2022/10/31 05:17:47;;;;;;;17.15;12.05;;;13.30;99.90;;;;;;5117325;28;20075;-74
2022/10/31 05:20:14;;;;;;;29.05;15.60;;;13.30;99.90;;;;;;5117548;28;20035;-74
2022/10/31 05:22:47;;;;;;;21.17;14.27;;;13.30;99.90;;;;;;5117446;28;20049;-74
2022/10/31 05:25:13;;;;;;;43.67;21.15;;;13.40;99.90;;;;;;5117169;28;20527;-77
2022/10/31 05:27:41;;;;;;;47.75;21.48;;;13.40;99.90;;;;;;5150425;27;20054;-74
2022/10/31 05:30:08;;;;;;;42.90;20.98;;;13.40;99.90;;;;;;5117151;28;20038;-74
2022/10/31 05:32:40;;;;;;;38.75;20.15;;;13.40;99.90;;;;;;5116898;28;20045;-74
2022/10/31 05:35:10;;;;;;;37.75;19.85;;;13.40;99.90;;;;;;5117052;28;20040;-74
2022/10/31 05:37:36;;;;;;;23.50;15.90;;;13.40;99.90;;;;;;5117315;28;20042;-74
2022/10/31 05:40:03;;;;;;;23.70;14.30;;;13.30;99.90;;;;;;5116746;28;20044;-74
2022/10/31 05:42:29;;;;;;;29.15;16.75;;;13.30;99.90;;;;;;5116472;28;20048;-73
2022/10/31 05:44:56;;;;;;;26.20;16.13;;;13.20;99.90;;;;;;5116960;28;20500;-74
2022/10/31 05:47:22;;;;;;;22.73;14.48;;;13.20;99.90;;;;;;5117221;28;20075;-74
2022/10/31 05:49:48;;;;;;;32.97;17.85;;;13.20;99.90;;;;;;5117213;28;20342;-74
2022/10/31 05:52:14;;;;;;;25.65;15.68;;;13.20;99.90;;;;;;5116927;28;20043;-74
2022/10/31 05:54:40;;;;;;;28.35;17.15;;;13.20;99.90;;;;;;5116949;28;20459;-74
2022/10/31 05:57:05;;;;;;;24.65;15.25;;;13.20;99.90;;;;;;5117074;28;20039;-74
2022/10/31 05:59:31;;;;;;;18.80;12.13;;;13.20;99.90;;;;;;5116921;28;20112;-74
2022/10/31 06:01:57;;;;;;;20.05;13.27;;;13.20;99.90;;;;;;5116666;28;20093;-74
2022/10/31 06:04:22;;;;;;;20.02;12.60;;;13.10;99.90;;;;;;5116778;28;20036;-74
2022/10/31 06:06:48;;;;;;;17.85;12.20;;;13.00;99.90;;;;;;5116988;28;20123;-74
2022/10/31 06:09:14;;;;;;;17.17;11.45;;;12.90;99.90;;;;;;5116721;28;20042;-74
2022/10/31 06:11:39;;;;;;;19.38;11.80;;;12.90;99.90;;;;;;5116893;28;20035;-74
2022/10/31 06:14:05;;;;;;;19.20;11.90;;;12.90;99.90;;;;;;5116953;28;20082;-74
2022/10/31 06:16:31;;;;;;;17.27;11.55;;;12.80;99.90;;;;;;5116754;28;20035;-74
2022/10/31 06:18:57;;;;;;;16.75;10.85;;;12.80;99.90;;;;;;5116716;28;20067;-75
2022/10/31 06:21:22;;;;;;;26.23;14.40;;;12.80;99.90;;;;;;5115613;28;20119;-74
2022/10/31 06:23:48;;;;;;;22.02;12.77;;;12.80;99.90;;;;;;5116539;28;20036;-74
2022/10/31 06:26:14;;;;;;;21.27;13.02;;;12.80;99.90;;;;;;5116518;28;20089;-74
2022/10/31 06:28:40;;;;;;;19.90;11.73;;;12.80;99.90;;;;;;5116617;28;20039;-74
2022/10/31 06:31:05;;;;;;;15.82;10.70;;;12.80;99.90;;;;;;5116775;28;20042;-74
2022/10/31 06:33:31;;;;;;;20.08;11.95;;;12.80;99.90;;;;;;5116667;28;20043;-74
2022/10/31 06:35:57;;;;;;;17.50;11.95;;;12.80;99.90;;;;;;5116743;28;20057;-74
2022/10/31 06:38:22;;;;;;;17.55;12.60;;;12.70;99.90;;;;;;5115180;28;20039;-74
2022/10/31 06:40:48;;;;;;;19.08;11.45;;;12.70;99.90;;;;;;5116609;28;20082;-74
2022/10/31 06:43:14;;;;;;;16.77;11.05;;;12.70;99.90;;;;;;5116166;28;20044;-74
2022/10/31 06:45:40;;;;;;;18.45;11.30;;;12.60;99.90;;;;;;5118495;28;20055;-74
2022/10/31 06:48:06;;;;;;;17.73;11.52;;;12.50;99.90;;;;;;5120374;28;20141;-74
2022/10/31 06:50:32;;;;;;;17.05;11.40;;;12.50;99.90;;;;;;5120199;28;20263;-74
2022/10/31 06:52:58;;;;;;;15.13;10.90;;;12.40;99.90;;;;;;5119906;28;20130;-74
2022/10/31 06:55:26;;;;;;;16.00;10.57;;;12.40;99.90;;;;;;5120338;28;20093;-74
2022/10/31 06:57:59;;;;;;;21.33;11.23;;;12.40;99.90;;;;;;5119114;28;20130;-74
2022/10/31 07:00:27;;;;;;;15.85;11.48;;;12.50;99.90;;;;;;5153362;27;20340;-74
2022/10/31 07:03:01;;;;;;;22.50;12.98;;;12.50;99.90;;;;;;5119946;28;20071;-74
2022/10/31 07:05:27;;;;;;;18.38;11.75;;;12.50;99.90;;;;;;5119930;28;20042;-74
2022/10/31 07:07:59;;;;;;;19.52;11.95;;;12.50;99.90;;;;;;5119854;28;20043;-74
2022/10/31 07:10:27;;;;;;;20.10;12.65;;;12.50;99.90;;;;;;5152718;27;20047;-74
2022/10/31 07:13:00;;;;;;;17.88;11.98;;;12.50;99.90;;;;;;5119896;28;20040;-75
2022/10/31 07:15:28;;;;;;;21.33;12.30;;;12.60;99.90;;;;;;5119841;28;20046;-74
2022/10/31 07:17:54;;;;;;;20.33;12.23;;;12.60;99.90;;;;;;5119598;28;20039;-74
2022/10/31 07:20:20;;;;;;;20.05;12.40;;;12.70;99.90;;;;;;5118239;28;20047;-74
2022/10/31 07:22:46;;;;;;;21.58;13.45;;;12.70;99.90;;;;;;5118535;28;20325;-74
2022/10/31 07:25:11;;;;;;;18.17;12.23;;;12.80;99.90;;;;;;5119792;28;20054;-74
2022/10/31 07:27:38;;;;;;;19.17;12.98;;;12.80;99.90;;;;;;5119694;28;20035;-74
2022/10/31 07:30:08;;;;;;;18.08;11.75;;;12.70;99.90;;;;;;5119356;28;20039;-74
2022/10/31 07:32:39;;;;;;;20.00;13.07;;;12.70;99.90;;;;;;5119249;28;20055;-74
2022/10/31 07:35:05;;;;;;;20.42;13.27;;;12.80;99.90;;;;;;5118367;28;20118;-74
2022/10/31 07:37:31;;;;;;;21.88;14.40;;;12.80;99.90;;;;;;5119301;28;20039;-74
2022/10/31 07:39:57;;;;;;;26.90;16.08;;;12.80;99.90;;;;;;5118865;28;20043;-74
2022/10/31 07:42:22;;;;;;;32.53;19.23;;;12.90;99.90;;;;;;5152542;27;20044;-74
2022/10/31 07:44:48;;;;;;;19.95;13.43;;;13.00;99.90;;;;;;5118879;28;20043;-73
2022/10/31 07:47:14;;;;;;;35.33;21.30;;;13.10;99.90;;;;;;5119278;28;20148;-74
2022/10/31 07:49:39;;;;;;;24.92;15.75;;;13.20;99.90;;;;;;5152485;27;20036;-74
2022/10/31 07:52:05;;;;;;;29.60;18.00;;;13.20;99.90;;;;;;5119165;28;20035;-74
2022/10/31 07:54:30;;;;;;;22.92;15.20;;;13.20;99.90;;;;;;5119023;28;20122;-74
2022/10/31 07:56:56;;;;;;;29.30;17.35;;;13.30;99.90;;;;;;5118578;28;20075;-74
2022/10/31 07:59:22;;;;;;;27.95;18.40;;;13.30;99.90;;;;;;5118834;28;20092;-74
2022/10/31 08:01:47;;;;;;;24.85;15.32;;;13.40;99.90;;;;;;5118738;28;20046;-74
2022/10/31 08:04:13;;;;;;;25.02;16.05;;;13.50;99.90;;;;;;5118970;28;20046;-74
2022/10/31 08:06:39;;;;;;;35.42;20.15;;;13.50;99.90;;;;;;5152314;27;20313;-74
2022/10/31 08:09:04;;;;;;;30.98;18.45;;;13.60;99.90;;;;;;5118566;28;20473;-73
2022/10/31 08:11:30;;;;;;;25.08;16.25;;;13.70;99.90;;;;;;5151889;27;20080;-69
2022/10/31 08:13:55;;;;;;;22.75;16.08;;;13.80;99.90;;;;;;5118729;28;20051;-71
2022/10/31 08:16:21;;;;;;;29.35;18.02;;;13.90;99.90;;;;;;5118436;28;20055;-70
2022/10/31 08:18:47;;;;;;;33.80;17.77;;;13.90;99.90;;;;;;5151907;27;20097;-70
2022/10/31 08:21:13;;;;;;;25.35;16.77;;;13.90;99.90;;;;;;5118701;28;20039;-70
2022/10/31 08:23:38;;;;;;;28.35;17.27;;;14.00;99.90;;;;;;5118295;28;20115;-70
2022/10/31 08:26:05;;;;;;;31.02;20.35;;;13.90;99.90;;;;;;5118345;28;20091;-71
2022/10/31 08:28:32;;;;;;;29.13;16.50;;;13.90;99.90;;;;;;5118334;28;20071;-70
2022/10/31 08:30:58;;;;;;;27.38;17.27;;;13.90;99.90;;;;;;5151699;27;20039;-71
2022/10/31 08:33:23;;;;;;;31.23;17.10;;;14.00;99.90;;;;;;5117988;28;20047;-73
2022/10/31 08:35:49;;;;;;;27.58;18.25;;;14.10;99.90;;;;;;5117533;28;20047;-72
2022/10/31 08:38:15;;;;;;;27.40;16.58;;;14.20;99.90;;;;;;5134214;27;20120;-73
2022/10/31 08:40:41;;;;;;;36.13;18.83;;;14.30;99.90;;;;;;5118064;28;20042;-72
2022/10/31 08:43:17;;;;;;;26.63;17.67;;;14.40;99.90;;;;;;5117950;28;20489;-73
2022/10/31 08:45:44;;;;;;;34.88;21.27;;;14.50;99.90;;;;;;5117743;28;20047;-73
2022/10/31 08:48:13;;;;;;;24.55;16.95;;;14.50;99.90;;;;;;5116907;28;20468;-73
2022/10/31 08:50:39;;;;;;;29.13;18.67;;;14.50;99.90;;;;;;5117854;28;20104;-73
2022/10/31 08:53:15;;;;;;;25.92;17.30;;;14.60;99.90;;;;;;5117962;28;20324;-73
2022/10/31 08:55:42;;;;;;;27.80;16.55;;;14.50;99.90;;;;;;5117155;28;20387;-73
2022/10/31 08:58:10;;;;;;;26.20;16.92;;;14.60;99.90;;;;;;5117584;28;20047;-73
2022/10/31 09:00:37;;;;;;;26.70;16.63;;;14.50;99.90;;;;;;5117891;28;20031;-73
2022/10/31 09:03:06;;;;;;;26.40;16.58;;;14.40;99.90;;;;;;5117640;28;20084;-73
2022/10/31 09:05:33;;;;;;;29.58;17.90;;;14.30;99.90;;;;;;5117865;28;20047;-73
2022/10/31 09:08:00;;;;;;;24.40;15.85;;;14.20;99.90;;;;;;5116881;27;20039;-73
2022/10/31 09:10:27;;;;;;;29.77;18.17;;;14.00;99.90;;;;;;5116258;28;20413;-73
2022/10/31 09:13:01;;;;;;;27.30;16.98;;;14.10;99.90;;;;;;5117581;28;20088;-73
2022/10/31 09:15:28;;;;;;;30.75;18.77;;;14.00;99.90;;;;;;5117523;28;20073;-73
2022/10/31 09:17:54;;;;;;;29.67;17.30;;;14.10;99.90;;;;;;5150717;27;20040;-73
2022/10/31 09:20:19;;;;;;;24.13;16.48;;;14.20;99.90;;;;;;5117267;28;20043;-72
2022/10/31 09:22:46;;;;;;;26.98;17.90;;;14.20;99.90;;;;;;5133262;27;20047;-73
2022/10/31 09:25:12;;;;;;;23.55;16.05;;;14.20;99.90;;;;;;5116117;28;20485;-74
2022/10/31 09:27:37;;;;;;;24.77;16.92;;;14.30;99.90;;;;;;5116366;28;20488;-72
2022/10/31 09:30:04;;;;;;;24.63;16.63;;;14.40;99.90;;;;;;5117038;28;20114;-72
2022/10/31 09:32:30;;;;;;;27.13;17.70;;;14.30;99.90;;;;;;5117228;28;20118;-72
2022/10/31 09:34:55;;;;;;;28.50;17.55;;;14.40;99.90;;;;;;5117208;28;20144;-72
2022/10/31 09:37:21;;;;;;;26.90;15.88;;;14.60;99.90;;;;;;5150685;27;20043;-72
2022/10/31 09:39:47;;;;;;;22.02;15.15;;;14.70;99.90;;;;;;5116529;28;20350;-73
2022/10/31 09:42:15;;;;;;;24.35;16.13;;;14.80;99.90;;;;;;5116978;28;20036;-73
2022/10/31 09:44:59;;;;;;;21.80;15.55;;;14.80;99.90;;;;;;5116811;28;20076;-73
2022/10/31 09:47:43;;;;;;;19.35;14.30;;;14.90;99.90;;;;;;5117033;28;20047;-73
2022/10/31 09:50:21;;;;;;;21.27;14.20;;;14.90;99.90;;;;;;5116843;28;20428;-73
2022/10/31 09:53:10;;;;;;;21.70;15.77;;;14.90;99.90;;;;;;5117200;28;20118;-73
2022/10/31 09:55:38;;;;;;;;;;;15.10;99.90;;;;;;5150875;27;20092;-75
2022/10/31 09:58:05;;;;;;;28.73;13.48;;;15.10;99.90;;;;;;5117087;28;20030;-75
2022/10/31 10:00:32;;;;;;;30.63;14.68;;;15.30;99.90;;;;;;5116699;28;20043;-75
2022/10/31 10:03:20;;;;;;;28.17;13.23;;;15.30;99.90;;;;;;5116786;28;20126;-75
2022/10/31 10:06:04;;;;;;;25.52;13.93;;;15.40;99.90;;;;;;5116901;27;20158;-75
2022/10/31 10:08:32;;;;;;;23.75;12.98;;;15.50;99.90;;;;;;5098383;28;20040;-77
2022/10/31 10:11:20;;;;;;;20.88;12.68;;;15.60;99.90;;;;;;5117284;28;20046;-76
2022/10/31 10:14:03;;;;;;;34.50;13.27;;;15.90;99.90;;;;;;5150007;27;20043;-78
2022/10/31 10:16:56;;;;;;;27.23;12.68;;;16.00;99.90;;;;;;5116941;28;20035;-76
2022/10/31 10:19:33;;;;;;;25.27;14.77;;;16.20;99.90;;;;;;5118178;28;20051;-76
2022/10/31 10:21:59;;;;;;;31.83;13.95;;;16.40;99.90;;;;;;5120617;28;20036;-75
2022/10/31 10:24:40;;;;;;;24.42;13.73;;;16.30;99.90;;;;;;5153994;27;20047;-82
2022/10/31 10:27:18;;;;;;;21.88;14.07;;;16.50;99.90;;;;;;5154167;27;20047;-77
2022/10/31 10:29:58;;;;;;;23.17;13.98;;;16.60;99.90;;;;;;5120763;28;20415;-73
2022/10/31 10:32:28;;;;;;;20.25;14.02;;;16.50;99.90;;;;;;5120769;28;20036;-72
2022/10/31 10:35:09;;;;;;;20.08;14.07;;;16.30;99.90;;;;;;5120537;27;20092;-73
2022/10/31 10:37:40;;;;;;;24.13;13.95;;;16.00;99.90;;;;;;5120456;28;20294;-73
2022/10/31 10:40:19;;;;;;;21.80;13.50;;;16.00;99.90;;;;;;5120025;27;20043;-73
2022/10/31 10:43:23;;;;;;;20.27;13.82;;;16.10;99.90;;;;;;5120243;27;20066;-73
2022/10/31 10:49:11;;;;;;;18.60;12.55;;;16.50;99.90;;;;;;5148470;27;20055;-78
2022/10/31 10:51:40;;;;;;;23.92;14.15;;;16.60;99.90;;;;;;5120051;28;20039;-72
2022/10/31 10:54:15;;;;;;;20.83;14.07;;;16.50;99.90;;;;;;5120279;28;20031;-74
2022/10/31 10:57:08;;;;;;;19.35;13.73;;;16.50;99.90;;;;;;5120016;28;20036;-73
2022/10/31 10:59:35;;;;;;;23.23;13.32;;;16.60;99.90;;;;;;5120203;28;20035;-73
2022/10/31 11:02:03;;;;;;;22.52;13.38;;;16.80;99.90;;;;;;5118675;28;20047;-73
2022/10/31 11:04:28;;;;;;;24.33;11.85;;;17.10;99.90;;;;;;5118714;28;20040;-80
2022/10/31 11:07:12;;;;;;;19.88;12.18;;;17.20;99.90;;;;;;5153486;27;20045;-80
2022/10/31 11:09:38;;;;;;;19.73;12.90;;;17.10;99.90;;;;;;5119443;28;20111;-81
2022/10/31 11:12:17;;;;;;;20.52;12.75;;;17.00;99.90;;;;;;5135750;27;20181;-83
2022/10/31 11:15:07;;;;;;;20.20;12.48;;;17.00;99.90;;;;;;5119886;28;20432;-80
2022/10/31 11:17:36;;;;;;;23.05;11.13;;;17.10;99.90;;;;;;5118949;28;20047;-78
2022/10/31 11:20:11;;;;;;;16.00;9.68;;;16.90;99.90;;;;;;5118389;28;20044;-80
2022/10/31 11:22:37;;;;;;;14.73;9.32;;;16.90;99.90;;;;;;5152982;27;20085;-78
2022/10/31 11:25:24;;;;;;;15.05;8.15;;;17.20;99.90;;;;;;5119808;28;20352;-80
2022/10/31 11:28:09;;;;;;;13.32;8.60;;;17.40;99.90;;;;;;5119381;28;20047;-78
2022/10/31 11:30:52;;;;;;;13.48;7.38;;;17.60;99.90;;;;;;5152124;27;20043;-79
2022/10/31 11:33:40;;;;;;;14.05;8.07;;;17.50;99.90;;;;;;5119459;28;20045;-80
2022/10/31 11:36:21;;;;;;;10.38;7.00;;;17.40;99.90;;;;;;5100838;28;20062;-78
2022/10/31 11:38:48;;;;;;;12.43;7.78;;;17.10;99.90;;;;;;5135158;27;20330;-78
2022/10/31 11:41:29;;;;;;;13.63;7.70;;;17.10;99.90;;;;;;5118003;28;20040;-78
2022/10/31 11:43:59;;;;;;;11.85;7.25;;;17.20;99.90;;;;;;5119251;27;20093;-78
2022/10/31 11:46:38;;;;;;;14.75;7.20;;;17.40;99.90;;;;;;5119123;27;20032;-77
2022/10/31 11:49:11;;;;;;;12.88;6.60;;;17.40;99.90;;;;;;5119256;28;20123;-77
2022/10/31 11:51:37;;;;;;;14.75;7.00;;;17.50;99.90;;;;;;5119257;28;20100;-78
2022/10/31 11:54:04;;;;;;;13.95;7.07;;;17.40;99.90;;;;;;5135065;27;20079;-82
2022/10/31 11:56:41;;;;;;;13.25;6.20;;;17.40;99.90;;;;;;5118175;28;20040;-82
2022/10/31 11:59:18;;;;;;;10.68;7.22;;;17.40;99.90;;;;;;5152219;27;20044;-81
2022/10/31 12:01:49;;;;;;;16.02;8.27;;;17.40;99.90;;;;;;5118693;27;20120;-82
2022/10/31 12:04:16;;;;;;;14.35;7.30;;;17.60;99.90;;;;;;5119023;28;20039;-73
2022/10/31 12:06:47;;;;;;;13.07;7.50;;;17.60;99.90;;;;;;5118804;27;20040;-72
2022/10/31 12:09:25;;;;;;;14.65;7.05;;;17.60;99.90;;;;;;5118606;28;20054;-73
2022/10/31 12:11:54;;;;;;;11.80;6.60;;;17.70;99.90;;;;;;5117583;28;20044;-74
2022/10/31 12:14:38;;;;;;;11.63;6.45;;;17.80;99.90;;;;;;5118729;28;20039;-74
2022/10/31 12:17:12;;;;;;;12.15;6.90;;;17.80;99.90;;;;;;5118722;28;20042;-74
2022/10/31 12:20:17;;;;;;;11.50;6.55;;;17.80;99.90;;;;;;5118484;28;20031;-74
2022/10/31 12:23:00;;;;;;;14.38;6.93;;;18.00;99.90;;;;;;5116446;27;20054;-74
2022/10/31 12:25:41;;;;;;;16.73;6.97;;;18.20;99.90;;;;;;5118595;28;20040;-77
2022/10/31 12:28:52;;;;;;;19.50;7.00;;;18.60;99.90;;;;;;5118395;28;20047;-80
2022/10/31 12:31:24;;;;;;;13.23;8.27;;;18.60;99.90;;;;;;5094101;28;20120;-78
2022/10/31 12:34:12;;;;;;;15.23;8.20;;;18.10;99.90;;;;;;5134317;27;20054;-80
2022/10/31 12:36:56;;;;;;;19.73;8.43;;;17.70;99.90;;;;;;5108972;28;20125;-76
2022/10/31 12:39:44;;;;;;;20.42;9.07;;;17.50;99.90;;;;;;5150822;27;20047;-76
2022/10/31 12:42:46;;;;;;;18.98;8.48;;;17.30;99.90;;;;;;5150559;27;20050;-76
2022/10/31 12:45:25;;;;;;;15.82;8.25;;;17.00;99.90;;;;;;5116622;28;20055;-76
2022/10/31 12:48:06;;;;;;;16.38;8.25;;;16.90;99.90;;;;;;5151130;27;20040;-76
2022/10/31 12:50:38;;;;;;;17.60;7.25;;;17.20;99.90;;;;;;5116882;28;20366;-76